sensor_id;sensor_type;location;lat;lon;timestamp;pressure;altitude;pressure_sealevel;temperature;humidity
56402;BME280;42299;35.160;26.100;2023-03-04T00:00:10;101398.91;;;13.12;100.00
56402;BME280;42299;35.160;26.100;2023-03-04T00:01:31;101399.81;;;13.14;100.00
56402;BME280;42299;35.160;26.100;2023-03-04T00:02:55;101389.25;;;13.15;100.00
56402;BME280;42299;35.160;26.100;2023-03-04T00:04:17;101395.44;;;13.16;100.00
56402;BME280;42299;35.160;26.100;2023-03-04T00:05:39;101403.44;;;13.18;100.00
56402;BME280;42299;35.160;26.100;2023-03-04T00:07:01;101397.25;;;13.19;100.00
56402;BME280;42299;35.160;26.100;2023-03-04T00:08:22;101405.22;;;13.19;100.00
56402;BME280;42299;35.160;26.100;2023-03-04T00:09:45;101408.75;;;13.19;100.00
56402;BME280;42299;35.160;26.100;2023-03-04T00:11:06;101397.22;;;13.17;100.00
56402;BME280;42299;35.160;26.100;2023-03-04T00:12:29;101399.00;;;13.16;100.00
56402;BME280;42299;35.160;26.100;2023-03-04T00:13:50;101392.75;;;13.14;100.00
56402;BME280;42299;35.160;26.100;2023-03-04T00:15:12;101391.88;;;13.12;100.00
56402;BME280;42299;35.160;26.100;2023-03-04T00:16:34;101397.09;;;13.11;100.00
56402;BME280;42299;35.160;26.100;2023-03-04T00:17:57;101389.13;;;13.09;100.00
56402;BME280;42299;35.160;26.100;2023-03-04T00:19:20;101391.75;;;13.08;100.00
56402;BME280;42299;35.160;26.100;2023-03-04T00:20:41;101388.22;;;13.09;100.00
56402;BME280;42299;35.160;26.100;2023-03-04T00:22:03;101390.88;;;13.09;100.00
56402;BME280;42299;35.160;26.100;2023-03-04T00:23:26;101380.28;;;13.09;100.00
56402;BME280;42299;35.160;26.100;2023-03-04T00:24:47;101389.13;;;13.09;100.00
56402;BME280;42299;35.160;26.100;2023-03-04T00:26:09;101383.00;;;13.12;100.00
56402;BME280;42299;35.160;26.100;2023-03-04T00:27:31;101375.06;;;13.13;100.00
56402;BME280;42299;35.160;26.100;2023-03-04T00:28:54;101369.75;;;13.12;100.00
56402;BME280;42299;35.160;26.100;2023-03-04T00:30:17;101375.00;;;13.10;100.00
56402;BME280;42299;35.160;26.100;2023-03-04T00:31:38;101364.38;;;13.09;100.00
56402;BME280;42299;35.160;26.100;2023-03-04T00:33:03;101371.50;;;13.11;100.00
56402;BME280;42299;35.160;26.100;2023-03-04T00:34:24;101364.41;;;13.10;100.00
56402;BME280;42299;35.160;26.100;2023-03-04T00:35:47;101363.44;;;13.07;100.00
56402;BME280;42299;35.160;26.100;2023-03-04T00:37:08;101368.72;;;13.04;100.00
56402;BME280;42299;35.160;26.100;2023-03-04T00:38:30;101370.44;;;13.02;100.00
56402;BME280;42299;35.160;26.100;2023-03-04T00:39:52;101371.31;;;13.01;100.00
56402;BME280;42299;35.160;26.100;2023-03-04T00:41:14;101370.41;;;12.99;100.00
56402;BME280;42299;35.160;26.100;2023-03-04T00:42:35;101374.81;;;12.98;100.00
56402;BME280;42299;35.160;26.100;2023-03-04T00:43:58;101367.75;;;12.97;100.00
56402;BME280;42299;35.160;26.100;2023-03-04T00:45:19;101367.72;;;12.96;100.00
56402;BME280;42299;35.160;26.100;2023-03-04T00:46:41;101366.81;;;12.95;100.00
56402;BME280;42299;35.160;26.100;2023-03-04T00:48:04;101358.84;;;12.92;100.00
56402;BME280;42299;35.160;26.100;2023-03-04T00:49:27;101363.22;;;12.90;100.00
56402;BME280;42299;35.160;26.100;2023-03-04T00:50:48;101363.22;;;12.90;100.00
56402;BME280;42299;35.160;26.100;2023-03-04T00:52:11;101357.88;;;12.89;100.00
56402;BME280;42299;35.160;26.100;2023-03-04T00:53:34;101360.50;;;12.87;100.00
56402;BME280;42299;35.160;26.100;2023-03-04T00:54:55;101364.91;;;12.85;100.00
56402;BME280;42299;35.160;26.100;2023-03-04T00:56:18;101362.19;;;12.82;100.00
56402;BME280;42299;35.160;26.100;2023-03-04T00:57:39;101357.72;;;12.78;100.00
56402;BME280;42299;35.160;26.100;2023-03-04T00:59:02;101357.69;;;12.76;100.00
56402;BME280;42299;35.160;26.100;2023-03-04T01:00:23;101349.66;;;12.73;100.00
56402;BME280;42299;35.160;26.100;2023-03-04T01:01:45;101353.22;;;12.74;100.00
56402;BME280;42299;35.160;26.100;2023-03-04T01:03:09;101348.84;;;12.76;100.00
56402;BME280;42299;35.160;26.100;2023-03-04T01:04:32;101350.69;;;12.82;100.00
56402;BME280;42299;35.160;26.100;2023-03-04T01:05:53;101342.75;;;12.82;100.00
56402;BME280;42299;35.160;26.100;2023-03-04T01:07:16;101343.63;;;12.82;100.00
56402;BME280;42299;35.160;26.100;2023-03-04T01:08:38;101335.66;;;12.81;100.00
56402;BME280;42299;35.160;26.100;2023-03-04T01:10:00;101343.59;;;12.81;100.00
56402;BME280;42299;35.160;26.100;2023-03-04T01:11:22;101335.72;;;12.84;100.00
56402;BME280;42299;35.160;26.100;2023-03-04T01:12:45;101327.81;;;12.87;100.00
56402;BME280;42299;35.160;26.100;2023-03-04T01:14:07;101330.50;;;12.90;100.00
56402;BME280;42299;35.160;26.100;2023-03-04T01:15:29;101332.31;;;12.91;100.00
56402;BME280;42299;35.160;26.100;2023-03-04T01:16:51;101336.75;;;12.92;100.00
56402;BME280;42299;35.160;26.100;2023-03-04T01:18:16;101332.31;;;12.91;100.00
56402;BME280;42299;35.160;26.100;2023-03-04T01:19:38;101330.47;;;12.88;100.00
56402;BME280;42299;35.160;26.100;2023-03-04T01:21:00;101323.38;;;12.84;100.00
56402;BME280;42299;35.160;26.100;2023-03-04T01:22:23;101328.59;;;12.81;100.00
56402;BME280;42299;35.160;26.100;2023-03-04T01:23:44;101326.81;;;12.80;100.00
56402;BME280;42299;35.160;26.100;2023-03-04T01:25:08;101318.88;;;12.78;100.00
56402;BME280;42299;35.160;26.100;2023-03-04T01:26:30;101321.47;;;12.75;100.00
56402;BME280;42299;35.160;26.100;2023-03-04T01:27:52;101327.66;;;12.76;100.00
56402;BME280;42299;35.160;26.100;2023-03-04T01:29:14;101324.09;;;12.75;100.00
56402;BME280;42299;35.160;26.100;2023-03-04T01:30:36;101317.09;;;12.77;100.00
56402;BME280;42299;35.160;26.100;2023-03-04T01:31:57;101309.22;;;12.84;100.00
56402;BME280;42299;35.160;26.100;2023-03-04T01:33:21;101319.03;;;12.89;100.00
56402;BME280;42299;35.160;26.100;2023-03-04T01:34:44;101309.31;;;12.90;100.00
56402;BME280;42299;35.160;26.100;2023-03-04T01:36:05;101314.63;;;12.90;100.00
56402;BME280;42299;35.160;26.100;2023-03-04T01:37:28;101304.94;;;12.92;100.00
56402;BME280;42299;35.160;26.100;2023-03-04T01:38:49;101311.13;;;12.94;100.00
56402;BME280;42299;35.160;26.100;2023-03-04T01:40:12;101304.06;;;12.94;100.00
56402;BME280;42299;35.160;26.100;2023-03-04T01:41:33;101307.63;;;12.95;100.00
56402;BME280;42299;35.160;26.100;2023-03-04T01:42:56;101308.53;;;12.97;100.00
56402;BME280;42299;35.160;26.100;2023-03-04T01:44:18;101305.03;;;12.98;100.00
56402;BME280;42299;35.160;26.100;2023-03-04T01:45:39;101305.03;;;12.98;100.00
56402;BME280;42299;35.160;26.100;2023-03-04T01:47:02;101297.94;;;12.97;100.00
56402;BME280;42299;35.160;26.100;2023-03-04T01:48:28;101297.03;;;12.96;100.00
56402;BME280;42299;35.160;26.100;2023-03-04T01:49:54;101296.13;;;12.94;100.00
56402;BME280;42299;35.160;26.100;2023-03-04T01:51:17;101283.75;;;12.92;100.00
56402;BME280;42299;35.160;26.100;2023-03-04T01:52:41;101285.47;;;12.90;100.00
56402;BME280;42299;35.160;26.100;2023-03-04T01:54:04;101277.50;;;12.90;100.00
56402;BME280;42299;35.160;26.100;2023-03-04T01:55:26;101278.41;;;12.90;100.00
56402;BME280;42299;35.160;26.100;2023-03-04T01:56:50;101276.69;;;12.94;100.00
56402;BME280;42299;35.160;26.100;2023-03-04T01:58:12;101274.97;;;12.97;100.00
56402;BME280;42299;35.160;26.100;2023-03-04T01:59:35;101279.41;;;13.00;100.00
56402;BME280;42299;35.160;26.100;2023-03-04T02:00:57;101280.31;;;12.99;100.00
56402;BME280;42299;35.160;26.100;2023-03-04T02:02:20;101275.00;;;12.99;100.00
56402;BME280;42299;35.160;26.100;2023-03-04T02:03:42;101267.06;;;12.99;100.00
56402;BME280;42299;35.160;26.100;2023-03-04T02:05:05;101273.22;;;12.98;100.00
56402;BME280;42299;35.160;26.100;2023-03-04T02:06:26;101275.84;;;12.96;100.00
56402;BME280;42299;35.160;26.100;2023-03-04T02:07:50;101281.13;;;12.95;100.00
56402;BME280;42299;35.160;26.100;2023-03-04T02:09:13;101279.34;;;12.94;100.00
56402;BME280;42299;35.160;26.100;2023-03-04T02:10:36;101276.69;;;12.94;100.00
56402;BME280;42299;35.160;26.100;2023-03-04T02:12:00;101275.81;;;12.95;100.00
56402;BME280;42299;35.160;26.100;2023-03-04T02:13:21;101274.00;;;12.91;100.00
56402;BME280;42299;35.160;26.100;2023-03-04T02:14:45;101272.28;;;12.94;100.00
56402;BME280;42299;35.160;26.100;2023-03-04T02:16:07;101279.38;;;12.97;100.00
56402;BME280;42299;35.160;26.100;2023-03-04T02:17:31;101275.91;;;13.01;100.00
56402;BME280;42299;35.160;26.100;2023-03-04T02:18:54;101275.09;;;13.05;100.00
56402;BME280;42299;35.160;26.100;2023-03-04T02:20:24;101273.31;;;13.04;100.00
56402;BME280;42299;35.160;26.100;2023-03-04T02:21:48;101274.16;;;13.01;100.00
56402;BME280;42299;35.160;26.100;2023-03-04T02:23:15;101263.53;;;13.01;100.00
56402;BME280;42299;35.160;26.100;2023-03-04T02:24:44;101265.28;;;13.01;100.00
56402;BME280;42299;35.160;26.100;2023-03-04T02:26:13;101259.13;;;13.02;100.00
56402;BME280;42299;35.160;26.100;2023-03-04T02:27:36;101262.66;;;13.01;100.00
56402;BME280;42299;35.160;26.100;2023-03-04T02:28:58;101258.25;;;13.01;100.00
56402;BME280;42299;35.160;26.100;2023-03-04T02:30:23;101264.44;;;13.02;100.00
56402;BME280;42299;35.160;26.100;2023-03-04T02:31:46;101261.78;;;13.02;100.00
56402;BME280;42299;35.160;26.100;2023-03-04T02:33:13;101268.00;;;13.04;100.00
56402;BME280;42299;35.160;26.100;2023-03-04T02:34:38;101274.19;;;13.04;100.00
56402;BME280;42299;35.160;26.100;2023-03-04T02:36:01;101264.47;;;13.06;100.00
56402;BME280;42299;35.160;26.100;2023-03-04T02:37:22;101266.31;;;13.09;100.00
56402;BME280;42299;35.160;26.100;2023-03-04T02:38:48;101266.34;;;13.12;100.00
56402;BME280;42299;35.160;26.100;2023-03-04T02:40:13;101274.41;;;13.16;100.00
56402;BME280;42299;35.160;26.100;2023-03-04T02:41:38;101262.88;;;13.14;100.00
56402;BME280;42299;35.160;26.100;2023-03-04T02:43:01;101261.03;;;13.10;100.00
56402;BME280;42299;35.160;26.100;2023-03-04T02:44:24;101251.22;;;13.06;100.00
56402;BME280;42299;35.160;26.100;2023-03-04T02:45:48;101256.50;;;13.03;100.00
56402;BME280;42299;35.160;26.100;2023-03-04T02:47:13;101255.63;;;13.03;100.00
56402;BME280;42299;35.160;26.100;2023-03-04T02:48:35;101257.38;;;13.02;100.00
56402;BME280;42299;35.160;26.100;2023-03-04T02:49:57;101260.88;;;13.01;100.00
56402;BME280;42299;35.160;26.100;2023-03-04T02:51:20;101261.75;;;13.00;100.00
56402;BME280;42299;35.160;26.100;2023-03-04T02:52:42;101267.06;;;12.99;100.00
56402;BME280;42299;35.160;26.100;2023-03-04T02:54:13;101259.97;;;12.98;100.00
56402;BME280;42299;35.160;26.100;2023-03-04T02:55:36;101266.13;;;12.97;100.00
56402;BME280;42299;35.160;26.100;2023-03-04T02:57:00;101255.53;;;12.97;100.00
56402;BME280;42299;35.160;26.100;2023-03-04T02:58:25;101264.38;;;12.97;100.00
56402;BME280;42299;35.160;26.100;2023-03-04T02:59:47;101259.09;;;13.00;100.00
56402;BME280;42299;35.160;26.100;2023-03-04T03:01:13;101262.72;;;13.04;100.00
56402;BME280;42299;35.160;26.100;2023-03-04T03:02:35;101254.75;;;13.04;100.00
56402;BME280;42299;35.160;26.100;2023-03-04T03:03:57;101242.41;;;13.04;100.00
56402;BME280;42299;35.160;26.100;2023-03-04T03:05:19;101241.50;;;13.04;100.00
56402;BME280;42299;35.160;26.100;2023-03-04T03:06:41;101238.78;;;13.01;100.00
56402;BME280;42299;35.160;26.100;2023-03-04T03:08:04;101230.81;;;12.98;100.00
56402;BME280;42299;35.160;26.100;2023-03-04T03:09:28;101226.34;;;12.95;100.00
56402;BME280;42299;35.160;26.100;2023-03-04T03:10:50;101227.25;;;12.96;100.00
56402;BME280;42299;35.160;26.100;2023-03-04T03:12:14;101215.81;;;12.98;100.00
56402;BME280;42299;35.160;26.100;2023-03-04T03:13:35;101209.66;;;12.99;100.00
56402;BME280;42299;35.160;26.100;2023-03-04T03:14:58;101216.72;;;13.02;100.00
56402;BME280;42299;35.160;26.100;2023-03-04T03:16:19;101223.88;;;13.06;100.00
56402;BME280;42299;35.160;26.100;2023-03-04T03:17:44;101209.81;;;13.13;100.00
56402;BME280;42299;35.160;26.100;2023-03-04T03:19:05;101217.88;;;13.19;100.00
56402;BME280;42299;35.160;26.100;2023-03-04T03:20:30;101210.91;;;13.26;100.00
56402;BME280;42299;35.160;26.100;2023-03-04T03:21:52;101201.25;;;13.32;100.00
56402;BME280;42299;35.160;26.100;2023-03-04T03:23:13;101199.53;;;13.37;100.00
56402;BME280;42299;35.160;26.100;2023-03-04T03:24:37;101197.81;;;13.42;100.00
56402;BME280;42299;35.160;26.100;2023-03-04T03:25:59;101204.03;;;13.47;100.00
56402;BME280;42299;35.160;26.100;2023-03-04T03:27:23;101212.97;;;13.54;100.00
56402;BME280;42299;35.160;26.100;2023-03-04T03:28:45;101214.78;;;13.58;100.00
56402;BME280;42299;35.160;26.100;2023-03-04T03:30:10;101211.28;;;13.62;100.00
56402;BME280;42299;35.160;26.100;2023-03-04T03:31:31;101216.63;;;13.65;100.00
56402;BME280;42299;35.160;26.100;2023-03-04T03:32:54;101211.34;;;13.68;100.00
56402;BME280;42299;35.160;26.100;2023-03-04T03:34:15;101204.31;;;13.72;100.00
56402;BME280;42299;35.160;26.100;2023-03-04T03:35:37;101205.22;;;13.74;100.00
56402;BME280;42299;35.160;26.100;2023-03-04T03:37:00;101204.38;;;13.78;100.00
56402;BME280;42299;35.160;26.100;2023-03-04T03:38:21;101192.88;;;13.79;100.00
56402;BME280;42299;35.160;26.100;2023-03-04T03:39:43;101194.69;;;13.83;100.00
56402;BME280;42299;35.160;26.100;2023-03-04T03:41:05;101191.16;;;13.85;100.00
56402;BME280;42299;35.160;26.100;2023-03-04T03:42:28;101180.53;;;13.85;100.00
56402;BME280;42299;35.160;26.100;2023-03-04T03:43:49;101177.91;;;13.87;100.00
56402;BME280;42299;35.160;26.100;2023-03-04T03:45:12;101170.84;;;13.87;100.00
56402;BME280;42299;35.160;26.100;2023-03-04T03:46:33;101166.44;;;13.89;100.00
56402;BME280;42299;35.160;26.100;2023-03-04T03:47:55;101157.59;;;13.90;100.00
56402;BME280;42299;35.160;26.100;2023-03-04T03:49:18;101155.84;;;13.92;100.00
56402;BME280;42299;35.160;26.100;2023-03-04T03:50:39;101163.78;;;13.92;100.00
56402;BME280;42299;35.160;26.100;2023-03-04T03:52:01;101165.59;;;13.95;100.00
56402;BME280;42299;35.160;26.100;2023-03-04T03:53:23;101178.00;;;13.96;100.00
56402;BME280;42299;35.160;26.100;2023-03-04T03:54:45;101173.56;;;13.98;100.00
56402;BME280;42299;35.160;26.100;2023-03-04T03:56:07;101161.19;;;13.97;100.00
56402;BME280;42299;35.160;26.100;2023-03-04T03:57:30;101171.81;;;13.97;100.00
56402;BME280;42299;35.160;26.100;2023-03-04T03:58:52;101170.91;;;13.98;100.00
56402;BME280;42299;35.160;26.100;2023-03-04T04:00:15;101173.56;;;13.98;100.00
56402;BME280;42299;35.160;26.100;2023-03-04T04:01:38;101178.91;;;13.96;100.00
56402;BME280;42299;35.160;26.100;2023-03-04T04:03:00;101184.19;;;13.98;100.00
56402;BME280;42299;35.160;26.100;2023-03-04T04:04:22;101185.97;;;13.99;100.00
56402;BME280;42299;35.160;26.100;2023-03-04T04:05:43;101192.16;;;14.00;100.00
56402;BME280;42299;35.160;26.100;2023-03-04T04:07:06;101193.94;;;13.99;100.00
56402;BME280;42299;35.160;26.100;2023-03-04T04:08:27;101189.50;;;13.98;100.00
56402;BME280;42299;35.160;26.100;2023-03-04T04:09:49;101210.72;;;13.98;100.00
56402;BME280;42299;35.160;26.100;2023-03-04T04:11:11;101209.88;;;13.98;100.00
56402;BME280;42299;35.160;26.100;2023-03-04T04:12:35;101208.97;;;13.97;100.00
56402;BME280;42299;35.160;26.100;2023-03-04T04:13:57;101208.06;;;13.95;100.00
56402;BME280;42299;35.160;26.100;2023-03-04T04:15:19;101212.50;;;13.96;100.00
56402;BME280;42299;35.160;26.100;2023-03-04T04:16:41;101225.78;;;13.96;100.00
56402;BME280;42299;35.160;26.100;2023-03-04T04:18:03;101223.13;;;13.96;100.00
56402;BME280;42299;35.160;26.100;2023-03-04T04:19:25;101223.09;;;13.94;100.00
56402;BME280;42299;35.160;26.100;2023-03-04T04:20:48;101225.72;;;13.93;100.00
56402;BME280;42299;35.160;26.100;2023-03-04T04:22:14;101231.06;;;13.94;100.00
56402;BME280;42299;35.160;26.100;2023-03-04T04:23:37;101223.13;;;13.96;100.00
56402;BME280;42299;35.160;26.100;2023-03-04T04:24:58;101231.97;;;13.98;100.00
56402;BME280;42299;35.160;26.100;2023-03-04T04:26:21;101227.56;;;13.98;100.00
56402;BME280;42299;35.160;26.100;2023-03-04T04:27:43;101224.91;;;14.00;100.00
56402;BME280;42299;35.160;26.100;2023-03-04T04:29:06;101227.56;;;14.00;100.00
56402;BME280;42299;35.160;26.100;2023-03-04T04:30:27;101224.94;;;14.02;100.00
56402;BME280;42299;35.160;26.100;2023-03-04T04:31:50;101216.97;;;14.02;100.00
56402;BME280;42299;35.160;26.100;2023-03-04T04:33:11;101224.97;;;14.03;100.00
56402;BME280;42299;35.160;26.100;2023-03-04T04:34:34;101217.88;;;14.05;100.00
56402;BME280;42299;35.160;26.100;2023-03-04T04:35:56;101224.06;;;14.06;100.00
56402;BME280;42299;35.160;26.100;2023-03-04T04:37:18;101226.78;;;14.09;100.00
56402;BME280;42299;35.160;26.100;2023-03-04T04:38:41;101219.72;;;14.12;100.00
56402;BME280;42299;35.160;26.100;2023-03-04T04:40:02;101228.59;;;14.14;100.00
56402;BME280;42299;35.160;26.100;2023-03-04T04:41:27;101222.44;;;14.17;100.00
56402;BME280;42299;35.160;26.100;2023-03-04T04:42:51;101225.06;;;14.18;100.00
56402;BME280;42299;35.160;26.100;2023-03-04T04:44:14;101219.78;;;14.20;100.00
56402;BME280;42299;35.160;26.100;2023-03-04T04:45:37;101217.16;;;14.23;100.00
56402;BME280;42299;35.160;26.100;2023-03-04T04:46:58;101217.16;;;14.24;100.00
56402;BME280;42299;35.160;26.100;2023-03-04T04:48:20;101219.81;;;14.26;100.00
56402;BME280;42299;35.160;26.100;2023-03-04T04:49:41;101218.97;;;14.28;100.00
56402;BME280;42299;35.160;26.100;2023-03-04T04:51:04;101227.84;;;14.33;100.00
56402;BME280;42299;35.160;26.100;2023-03-04T04:52:25;101222.56;;;14.35;100.00
56402;BME280;42299;35.160;26.100;2023-03-04T04:53:48;101218.16;;;14.35;100.00
56402;BME280;42299;35.160;26.100;2023-03-04T04:55:09;101226.13;;;14.37;100.00
56402;BME280;42299;35.160;26.100;2023-03-04T04:56:32;101213.75;;;14.39;100.00
56402;BME280;42299;35.160;26.100;2023-03-04T04:57:55;101215.56;;;14.42;100.00
56402;BME280;42299;35.160;26.100;2023-03-04T04:59:17;101222.66;;;14.43;100.00
56402;BME280;42299;35.160;26.100;2023-03-04T05:00:39;101217.38;;;14.47;100.00
56402;BME280;42299;35.160;26.100;2023-03-04T05:02:01;101215.59;;;14.51;100.00
56402;BME280;42299;35.160;26.100;2023-03-04T05:03:23;101217.44;;;14.55;100.00
56402;BME280;42299;35.160;26.100;2023-03-04T05:04:45;101218.34;;;14.57;100.00
56402;BME280;42299;35.160;26.100;2023-03-04T05:06:09;101228.09;;;14.61;100.00
56402;BME280;42299;35.160;26.100;2023-03-04T05:07:30;101225.44;;;14.64;100.00
56402;BME280;42299;35.160;26.100;2023-03-04T05:08:53;101230.78;;;14.67;100.00
56402;BME280;42299;35.160;26.100;2023-03-04T05:10:15;101223.72;;;14.72;100.00
56402;BME280;42299;35.160;26.100;2023-03-04T05:11:38;101219.34;;;14.75;100.00
56402;BME280;42299;35.160;26.100;2023-03-04T05:13:02;101205.16;;;14.78;100.00
56402;BME280;42299;35.160;26.100;2023-03-04T05:14:23;101214.06;;;14.82;100.00
56402;BME280;42299;35.160;26.100;2023-03-04T05:15:46;101215.81;;;14.84;100.00
56402;BME280;42299;35.160;26.100;2023-03-04T05:17:07;101214.97;;;14.87;100.00
56402;BME280;42299;35.160;26.100;2023-03-04T05:18:30;101226.50;;;14.92;100.00
56402;BME280;42299;35.160;26.100;2023-03-04T05:19:51;101238.94;;;14.96;100.00
56402;BME280;42299;35.160;26.100;2023-03-04T05:21:13;101242.50;;;14.99;100.00
56402;BME280;42299;35.160;26.100;2023-03-04T05:22:35;101244.28;;;15.02;100.00
56402;BME280;42299;35.160;26.100;2023-03-04T05:23:58;101248.72;;;15.06;100.00
56402;BME280;42299;35.160;26.100;2023-03-04T05:25:20;101255.84;;;15.08;100.00
56402;BME280;42299;35.160;26.100;2023-03-04T05:26:41;101262.94;;;15.09;100.00
56402;BME280;42299;35.160;26.100;2023-03-04T05:28:05;101262.06;;;15.09;100.00
56402;BME280;42299;35.160;26.100;2023-03-04T05:29:32;101270.94;;;15.09;100.00
56402;BME280;42299;35.160;26.100;2023-03-04T05:30:54;101269.13;;;15.10;100.00
56402;BME280;42299;35.160;26.100;2023-03-04T05:32:15;101270.03;;;15.09;100.00
56402;BME280;42299;35.160;26.100;2023-03-04T05:33:38;101279.75;;;15.10;100.00
56402;BME280;42299;35.160;26.100;2023-03-04T05:35:00;101282.44;;;15.11;100.00
56402;BME280;42299;35.160;26.100;2023-03-04T05:36:23;101286.88;;;15.12;100.00
56402;BME280;42299;35.160;26.100;2023-03-04T05:37:45;101286.91;;;15.14;100.00
56402;BME280;42299;35.160;26.100;2023-03-04T05:39:07;101300.22;;;15.15;100.00
56402;BME280;42299;35.160;26.100;2023-03-04T05:40:30;101297.56;;;15.15;100.00
56402;BME280;42299;35.160;26.100;2023-03-04T05:41:52;101303.75;;;15.18;100.00
56402;BME280;42299;35.160;26.100;2023-03-04T05:43:16;101309.97;;;15.18;100.00
56402;BME280;42299;35.160;26.100;2023-03-04T05:44:37;101309.97;;;15.18;100.00
56402;BME280;42299;35.160;26.100;2023-03-04T05:45:59;101318.84;;;15.19;100.00
56402;BME280;42299;35.160;26.100;2023-03-04T05:47:21;101316.19;;;15.22;100.00
56402;BME280;42299;35.160;26.100;2023-03-04T05:48:43;101319.75;;;15.22;100.00
56402;BME280;42299;35.160;26.100;2023-03-04T05:50:07;101327.72;;;15.25;100.00
56402;BME280;42299;35.160;26.100;2023-03-04T05:51:28;101325.97;;;15.27;100.00
56402;BME280;42299;35.160;26.100;2023-03-04T05:52:50;101318.00;;;15.30;100.00
56402;BME280;42299;35.160;26.100;2023-03-04T05:54:13;101322.47;;;15.33;100.00
56402;BME280;42299;35.160;26.100;2023-03-04T05:55:35;101330.47;;;15.36;100.00
56402;BME280;42299;35.160;26.100;2023-03-04T05:56:58;101333.13;;;15.37;100.00
56402;BME280;42299;35.160;26.100;2023-03-04T05:58:21;101339.34;;;15.39;100.00
56402;BME280;42299;35.160;26.100;2023-03-04T05:59:43;101347.34;;;15.41;100.00
56402;BME280;42299;35.160;26.100;2023-03-04T06:01:06;101359.78;;;15.42;100.00
56402;BME280;42299;35.160;26.100;2023-03-04T06:02:30;101369.53;;;15.44;100.00
56402;BME280;42299;35.160;26.100;2023-03-04T06:03:52;101366.84;;;15.44;100.00
56402;BME280;42299;35.160;26.100;2023-03-04T06:05:14;101356.22;;;15.46;100.00
56402;BME280;42299;35.160;26.100;2023-03-04T06:06:37;101360.66;;;15.47;100.00
56402;BME280;42299;35.160;26.100;2023-03-04T06:07:59;101350.00;;;15.45;100.00
56402;BME280;42299;35.160;26.100;2023-03-04T06:09:22;101359.75;;;15.45;100.00
56402;BME280;42299;35.160;26.100;2023-03-04T06:10:45;101350.00;;;15.44;100.00
56402;BME280;42299;35.160;26.100;2023-03-04T06:12:06;101345.56;;;15.43;100.00
56402;BME280;42299;35.160;26.100;2023-03-04T06:13:30;101343.78;;;15.43;100.00
56402;BME280;42299;35.160;26.100;2023-03-04T06:14:51;101358.84;;;15.43;100.00
56402;BME280;42299;35.160;26.100;2023-03-04T06:16:14;101368.63;;;15.41;100.00
56402;BME280;42299;35.160;26.100;2023-03-04T06:17:37;101379.28;;;15.42;100.00
56402;BME280;42299;35.160;26.100;2023-03-04T06:18:59;101389.03;;;15.43;100.00
56402;BME280;42299;35.160;26.100;2023-03-04T06:20:22;101399.69;;;15.45;100.00
56402;BME280;42299;35.160;26.100;2023-03-04T06:21:44;101405.03;;;15.48;100.00
56402;BME280;42299;35.160;26.100;2023-03-04T06:23:06;101398.81;;;15.50;100.00
56402;BME280;42299;35.160;26.100;2023-03-04T06:24:28;101406.00;;;15.54;100.00
56402;BME280;42299;35.160;26.100;2023-03-04T06:25:51;101407.78;;;15.59;100.00
56402;BME280;42299;35.160;26.100;2023-03-04T06:27:14;101405.13;;;15.60;100.00
56402;BME280;42299;35.160;26.100;2023-03-04T06:28:37;101401.56;;;15.58;100.00
56402;BME280;42299;35.160;26.100;2023-03-04T06:30:00;101398.09;;;15.68;100.00
56402;BME280;42299;35.160;26.100;2023-03-04T06:31:21;101408.75;;;15.74;100.00
56402;BME280;42299;35.160;26.100;2023-03-04T06:32:44;101413.22;;;15.80;100.00
56402;BME280;42299;35.160;26.100;2023-03-04T06:34:08;101415.88;;;15.83;100.00
56402;BME280;42299;35.160;26.100;2023-03-04T06:35:30;101417.66;;;15.88;100.00
56402;BME280;42299;35.160;26.100;2023-03-04T06:36:52;101422.16;;;15.94;100.00
56402;BME280;42299;35.160;26.100;2023-03-04T06:38:14;101417.75;;;16.01;100.00
56402;BME280;42299;35.160;26.100;2023-03-04T06:39:36;101416.88;;;16.11;100.00
56402;BME280;42299;35.160;26.100;2023-03-04T06:41:06;101422.25;;;16.20;100.00
56402;BME280;42299;35.160;26.100;2023-03-04T06:42:28;101423.16;;;16.25;100.00
56402;BME280;42299;35.160;26.100;2023-03-04T06:43:54;101422.25;;;16.29;100.00
56402;BME280;42299;35.160;26.100;2023-03-04T06:45:16;101424.06;;;16.33;100.00
56402;BME280;42299;35.160;26.100;2023-03-04T06:46:39;101429.38;;;16.36;100.00
56402;BME280;42299;35.160;26.100;2023-03-04T06:48:00;101435.63;;;16.40;100.00
56402;BME280;42299;35.160;26.100;2023-03-04T06:49:22;101424.97;;;16.43;100.00
56402;BME280;42299;35.160;26.100;2023-03-04T06:50:45;101426.75;;;16.45;100.00
56402;BME280;42299;35.160;26.100;2023-03-04T06:52:07;101432.09;;;16.50;100.00
56402;BME280;42299;35.160;26.100;2023-03-04T06:53:30;101427.66;;;16.52;100.00
56402;BME280;42299;35.160;26.100;2023-03-04T06:54:53;101428.56;;;16.52;100.00
56402;BME280;42299;35.160;26.100;2023-03-04T06:56:14;101428.56;;;16.52;100.00
56402;BME280;42299;35.160;26.100;2023-03-04T06:57:37;101432.09;;;16.51;100.00
56402;BME280;42299;35.160;26.100;2023-03-04T06:59:01;101437.41;;;16.54;100.00
56402;BME280;42299;35.160;26.100;2023-03-04T07:00:24;101438.31;;;16.55;100.00